createdAt,value
2019-05-03T00:01:46.999Z,10.30
2019-05-03T00:04:18.308Z,10.30
2019-05-03T00:06:49.741Z,10.20
2019-05-03T00:09:22.571Z,10.20
2019-05-03T00:11:53.956Z,10.20
2019-05-03T00:14:25.898Z,10.20
2019-05-03T00:16:57.201Z,10.20
2019-05-03T00:19:28.608Z,10.20
2019-05-03T00:22:02.107Z,10.10
2019-05-03T00:24:34.646Z,10.10
2019-05-03T00:27:06.194Z,10.10
2019-05-03T00:29:37.466Z,10.10
2019-05-03T00:32:08.850Z,10.00
2019-05-03T00:34:46.492Z,10.00
2019-05-03T00:37:21.755Z,9.90
2019-05-03T00:40:04.611Z,9.90
2019-05-03T00:42:36.790Z,9.90
2019-05-03T00:45:09.005Z,9.90
2019-05-03T00:47:42.037Z,9.90
2019-05-03T00:50:13.543Z,9.90
2019-05-03T00:52:44.925Z,9.90
2019-05-03T00:55:19.180Z,9.90
2019-05-03T00:57:49.154Z,9.80
2019-05-03T01:00:21.771Z,9.80
2019-05-03T01:02:53.503Z,9.80
2019-05-03T01:05:24.782Z,9.80
2019-05-03T01:07:56.514Z,9.80
2019-05-03T01:10:27.790Z,9.80
2019-05-03T01:12:59.036Z,9.80
2019-05-03T01:15:42.331Z,9.80
2019-05-03T01:18:15.593Z,9.80
2019-05-03T01:33:22.583Z,9.70
2019-05-03T01:35:55.330Z,9.60
2019-05-03T01:38:31.721Z,9.60
2019-05-03T01:41:03.115Z,9.60
2019-05-03T01:43:34.759Z,9.60
2019-05-03T01:46:06.313Z,9.60
2019-05-03T01:49:03.557Z,9.60
2019-05-03T01:52:12.807Z,9.60
2019-05-03T01:54:45.309Z,9.60
2019-05-03T01:57:17.093Z,9.60
2019-05-03T01:59:48.479Z,9.60
2019-05-03T02:02:45.263Z,9.60
2019-05-03T02:05:38.085Z,9.60
2019-05-03T02:08:12.592Z,9.60
2019-05-03T02:10:45.028Z,9.60
2019-05-03T02:13:16.440Z,9.60
2019-05-03T02:15:47.794Z,9.60
2019-05-03T02:18:19.146Z,9.60
2019-05-03T02:20:52.409Z,9.60
2019-05-03T02:23:23.598Z,9.60
2019-05-03T02:25:58.971Z,9.60
2019-05-03T02:28:28.428Z,9.60
2019-05-03T02:31:03.464Z,9.60
2019-05-03T02:33:35.375Z,9.60
2019-05-03T02:36:07.122Z,9.70
2019-05-03T02:38:38.691Z,9.60
2019-05-03T02:41:13.202Z,9.60
2019-05-03T02:43:47.143Z,9.60
2019-05-03T02:46:40.461Z,9.70
2019-05-03T02:49:35.289Z,9.70
2019-05-03T02:52:06.995Z,9.70
2019-05-03T02:54:38.782Z,9.70
2019-05-03T02:57:10.290Z,9.70
2019-05-03T02:59:41.997Z,9.70
2019-05-03T03:02:15.189Z,9.70
2019-05-03T03:04:46.846Z,9.70
2019-05-03T03:07:19.062Z,9.70
2019-05-03T03:09:51.014Z,9.70
2019-05-03T03:12:25.743Z,9.60
2019-05-03T03:15:01.401Z,9.60
2019-05-03T03:17:36.502Z,9.60
2019-05-03T03:20:10.347Z,9.60
2019-05-03T03:22:46.759Z,9.60
2019-05-03T03:25:25.579Z,9.50
2019-05-03T03:27:59.548Z,9.50
2019-05-03T03:31:11.243Z,9.40
2019-05-03T03:33:47.129Z,9.40
2019-05-03T03:36:50.437Z,9.30
2019-05-03T03:38:50.333Z,9.20
2019-05-03T03:41:24.827Z,9.10
2019-05-03T03:43:57.854Z,9.10
2019-05-03T03:46:32.250Z,9.10
2019-05-03T03:49:06.851Z,9.10
2019-05-03T03:51:39.078Z,9.10
2019-05-03T03:54:15.556Z,9.10
2019-05-03T03:57:01.585Z,9.10
2019-05-03T03:59:26.576Z,9.10
2019-05-03T04:01:58.481Z,9.20
2019-05-03T04:04:31.320Z,9.30
2019-05-03T04:07:06.233Z,9.50
2019-05-03T04:09:36.938Z,9.60
2019-05-03T04:12:08.342Z,9.70
2019-05-03T04:14:59.184Z,9.70
2019-05-03T04:17:59.075Z,9.80
2019-05-03T04:20:36.527Z,9.80
2019-05-03T04:23:07.868Z,9.90
2019-05-03T04:25:40.120Z,9.90
2019-05-03T04:28:13.085Z,10.00
2019-05-03T04:30:46.069Z,10.00
2019-05-03T04:33:17.555Z,10.10
2019-05-03T04:35:49.108Z,10.20
2019-05-03T04:38:20.459Z,10.50
2019-05-03T04:40:52.113Z,10.60
2019-05-03T04:43:26.155Z,10.60
2019-05-03T04:46:09.764Z,10.60
2019-05-03T04:48:41.130Z,10.60
2019-05-03T04:51:12.584Z,10.60
2019-05-03T04:53:47.885Z,10.60
2019-05-03T04:56:19.479Z,10.60
2019-05-03T04:58:51.023Z,10.70
2019-05-03T05:01:22.623Z,10.80
2019-05-03T05:03:55.883Z,10.80
2019-05-03T05:06:27.421Z,10.80
2019-05-03T05:08:58.967Z,10.80
2019-05-03T05:11:30.729Z,10.80
2019-05-03T05:14:02.231Z,10.80
2019-05-03T05:16:35.565Z,10.80
2019-05-03T05:19:10.206Z,10.90
2019-05-03T05:21:45.685Z,11.30
2019-05-03T05:24:17.013Z,11.70
2019-05-03T05:27:00.733Z,12.20
2019-05-03T05:29:34.594Z,12.50
2019-05-03T05:32:06.291Z,12.70
2019-05-03T05:34:39.512Z,12.90
2019-05-03T05:37:11.002Z,13.10
2019-05-03T05:39:44.601Z,13.20
2019-05-03T05:42:16.684Z,13.30
2019-05-03T06:47:55.097Z,18.60
2019-05-03T06:50:28.919Z,18.70
2019-05-03T06:53:05.827Z,18.90
2019-05-03T06:55:35.221Z,19.10
2019-05-03T06:58:06.971Z,19.20
2019-05-03T07:00:57.144Z,19.30
2019-05-03T07:03:51.711Z,19.40
2019-05-03T07:06:41.004Z,19.40
2019-05-03T07:09:35.455Z,19.50
2019-05-03T07:12:06.916Z,19.50
2019-05-03T07:14:38.349Z,19.00
2019-05-03T07:17:10.032Z,18.60
2019-05-03T07:19:41.532Z,18.00
2019-05-03T07:22:15.134Z,17.60
2019-05-03T07:24:49.847Z,17.20
2019-05-03T07:27:24.752Z,17.00
2019-05-03T07:29:56.212Z,17.00
2019-05-03T07:32:27.784Z,16.90
2019-05-03T07:34:59.591Z,16.80
2019-05-03T07:37:30.985Z,16.60
2019-05-03T07:40:04.622Z,16.50
2019-05-03T07:42:35.767Z,16.20
2019-05-03T07:45:08.980Z,16.10
2019-05-03T07:47:40.625Z,16.00
2019-05-03T07:50:12.076Z,16.00
2019-05-03T07:52:45.093Z,16.10
2019-05-03T07:55:18.340Z,15.90
2019-05-03T07:57:56.053Z,15.70
2019-05-03T08:00:27.497Z,15.60
2019-05-03T08:02:59.019Z,15.60
2019-05-03T08:05:30.577Z,15.90
2019-05-03T08:08:02.026Z,16.40
2019-05-03T08:10:34.515Z,17.00
2019-05-03T08:13:06.262Z,17.60
2019-05-03T08:15:37.692Z,18.20
2019-05-03T08:18:09.162Z,18.70
2019-05-03T08:20:40.675Z,19.00
2019-05-03T08:23:24.467Z,19.20
2019-05-03T08:25:45.457Z,19.10
2019-05-03T08:28:17.015Z,18.80
2019-05-03T08:31:16.672Z,18.40
2019-05-03T08:34:07.122Z,17.90
2019-05-03T08:36:55.995Z,17.90
2019-05-03T08:39:27.375Z,18.00
2019-05-03T08:42:00.811Z,17.80
2019-05-03T08:44:32.437Z,17.50
2019-05-03T08:47:05.235Z,17.30
2019-05-03T08:49:37.911Z,17.10
2019-05-03T08:52:09.509Z,17.00
2019-05-03T08:54:41.383Z,16.80
2019-05-03T08:57:14.806Z,16.60
2019-05-03T08:59:45.874Z,16.60
2019-05-03T09:02:18.085Z,16.50
2019-05-03T09:04:50.151Z,16.50
2019-05-03T09:07:21.559Z,16.40
2019-05-03T09:09:59.044Z,16.30
2019-05-03T09:12:48.288Z,16.30
2019-05-03T09:15:21.764Z,16.40
2019-05-03T09:17:55.133Z,16.90
2019-05-03T09:20:26.445Z,17.40
2019-05-03T09:22:58.058Z,17.80
2019-05-03T09:25:29.339Z,17.80
2019-05-03T09:28:01.019Z,17.80
2019-05-03T09:30:40.095Z,17.70
2019-05-03T09:33:11.604Z,17.50
2019-05-03T09:35:45.126Z,17.60
2019-05-03T09:38:16.510Z,17.90
2019-05-03T09:40:47.789Z,18.40
2019-05-03T09:43:19.173Z,18.90
2019-05-03T09:45:50.772Z,19.40
2019-05-03T09:48:22.329Z,19.60
2019-05-03T09:50:55.454Z,19.50
2019-05-03T09:53:29.481Z,19.20
2019-05-03T09:56:01.162Z,18.70
2019-05-03T09:58:36.436Z,18.10
2019-05-03T10:01:08.348Z,17.60
2019-05-03T10:03:39.287Z,17.10
2019-05-03T10:06:10.507Z,16.90
2019-05-03T10:08:42.617Z,17.00
2019-05-03T10:11:15.471Z,17.10
2019-05-03T10:13:48.802Z,17.20
2019-05-03T10:16:22.026Z,17.40
2019-05-03T10:18:55.290Z,17.60
2019-05-03T10:21:29.042Z,17.70
2019-05-03T10:24:00.780Z,17.70
2019-05-03T10:26:32.242Z,17.50
2019-05-03T10:29:05.404Z,17.30
2019-05-03T10:31:44.951Z,17.10
2019-05-03T10:34:16.357Z,17.10
2019-05-03T10:36:47.818Z,17.00
2019-05-03T10:39:19.423Z,16.90
2019-05-03T10:41:50.761Z,16.90
2019-05-03T10:44:24.422Z,17.00
2019-05-03T10:46:55.932Z,17.20
2019-05-03T10:49:27.693Z,17.40
2019-05-03T10:52:02.584Z,17.60
2019-05-03T10:54:35.788Z,17.70
2019-05-03T10:57:12.992Z,17.90
2019-05-03T10:59:44.867Z,18.00
2019-05-03T11:02:42.891Z,17.90
2019-05-03T11:05:14.662Z,17.80
2019-05-03T11:07:46.074Z,17.90
2019-05-03T11:10:18.674Z,18.00
2019-05-03T11:12:50.048Z,18.10
2019-05-03T11:15:21.839Z,17.90
2019-05-03T11:17:54.933Z,17.70
2019-05-03T11:20:36.434Z,17.50
2019-05-03T11:23:09.556Z,17.20
2019-05-03T11:25:40.918Z,17.00
2019-05-03T11:28:25.271Z,16.80
2019-05-03T11:31:02.281Z,16.70
2019-05-03T11:33:38.090Z,16.70
2019-05-03T11:36:16.948Z,16.70
2019-05-03T11:38:48.701Z,16.70
2019-05-03T11:41:30.337Z,16.50
2019-05-03T11:43:52.899Z,16.30
2019-05-03T11:46:24.865Z,16.10
2019-05-03T11:48:56.175Z,16.00
2019-05-03T11:51:27.607Z,15.80
2019-05-03T11:53:59.003Z,15.80
2019-05-03T11:56:31.927Z,15.90
2019-05-03T11:59:05.295Z,16.10
2019-05-03T12:02:10.511Z,16.30
2019-05-03T12:04:41.929Z,16.60
2019-05-03T12:07:18.479Z,16.70
2019-05-03T12:09:49.168Z,16.60
2019-05-03T12:12:29.552Z,16.30
2019-05-03T12:15:01.028Z,15.90
2019-05-03T12:17:35.815Z,15.50
2019-05-03T12:20:09.407Z,15.20
2019-05-03T12:22:41.740Z,14.90
2019-05-03T12:25:16.284Z,14.70
2019-05-03T12:27:46.425Z,14.50
2019-05-03T12:30:17.918Z,14.40
2019-05-03T12:32:49.319Z,14.30
2019-05-03T12:35:20.795Z,14.20
2019-05-03T12:37:52.028Z,14.00
2019-05-03T12:40:25.356Z,14.00
2019-05-03T12:42:56.583Z,14.10
2019-05-03T12:45:28.113Z,14.10
2019-05-03T12:47:59.515Z,14.10
2019-05-03T12:50:32.043Z,14.10
2019-05-03T12:53:04.848Z,14.10
2019-05-03T12:55:36.359Z,14.10
2019-05-03T12:58:07.793Z,14.10
2019-05-03T13:00:58.125Z,14.00
2019-05-03T13:03:35.463Z,13.90
2019-05-03T13:06:07.428Z,13.80
2019-05-03T13:08:42.670Z,13.60
2019-05-03T13:11:14.036Z,13.50
2019-05-03T13:13:45.535Z,13.40
2019-05-03T13:16:19.236Z,13.30
2019-05-03T13:18:51.637Z,13.20
2019-05-03T13:21:25.284Z,13.10
2019-05-03T13:23:57.174Z,13.10
2019-05-03T13:26:28.484Z,13.00
2019-05-03T13:28:59.979Z,13.00
2019-05-03T13:31:31.803Z,13.00
2019-05-03T13:34:05.431Z,13.10
2019-05-03T13:36:36.428Z,13.20
2019-05-03T13:39:13.422Z,13.20
2019-05-03T13:41:45.349Z,13.30
2019-05-03T13:44:18.605Z,13.30
2019-05-03T13:46:50.987Z,13.30
2019-05-03T13:49:26.190Z,13.30
2019-05-03T14:52:57.022Z,14.30
2019-05-03T14:55:49.841Z,14.20
2019-05-03T14:58:52.755Z,14.20
2019-05-03T15:01:31.272Z,14.10
2019-05-03T15:04:02.653Z,14.10
2019-05-03T15:06:35.553Z,14.10
2019-05-03T15:09:08.928Z,14.10
2019-05-03T15:11:40.315Z,14.00
2019-05-03T15:14:11.833Z,14.00
2019-05-03T15:16:45.016Z,14.00
2019-05-03T15:19:16.578Z,14.00
2019-05-03T15:21:48.085Z,14.10
2019-05-03T15:24:20.520Z,14.10
2019-05-03T15:26:52.158Z,14.10
2019-05-03T15:29:24.843Z,14.10
2019-05-03T15:31:56.409Z,14.20
2019-05-03T15:34:28.070Z,14.20
2019-05-03T15:36:59.748Z,14.10
2019-05-03T15:39:31.821Z,14.00
2019-05-03T15:42:05.311Z,13.90
2019-05-03T15:51:08.614Z,13.10
2019-05-03T15:53:40.378Z,12.50
2019-05-03T15:56:11.713Z,12.10
2019-05-03T15:58:46.413Z,11.80
2019-05-03T16:01:16.230Z,11.50
2019-05-03T16:03:47.814Z,11.30
2019-05-03T16:06:19.374Z,11.20
2019-05-03T16:08:50.646Z,11.00
2019-05-03T16:11:21.983Z,11.00
2019-05-03T16:13:55.298Z,10.90
2019-05-03T16:16:28.035Z,10.90
2019-05-03T16:18:59.498Z,10.90
2019-05-03T16:21:31.202Z,10.80
2019-05-03T16:24:04.874Z,10.80
2019-05-03T16:26:37.982Z,10.90
2019-05-03T16:29:12.301Z,10.90
2019-05-03T16:31:45.034Z,11.00
2019-05-03T16:34:16.684Z,11.00
2019-05-03T16:36:48.528Z,11.20
2019-05-03T16:39:20.119Z,11.30
2019-05-03T16:41:52.744Z,11.50
2019-05-03T16:44:24.574Z,11.60
2019-05-03T16:46:56.063Z,11.80
2019-05-03T16:49:27.352Z,11.90
2019-05-03T16:51:58.874Z,12.00
2019-05-03T16:54:30.612Z,12.10
2019-05-03T16:57:05.618Z,12.20
2019-05-03T16:59:37.081Z,12.20
2019-05-03T17:02:11.757Z,12.40
2019-05-03T17:04:48.531Z,12.50
2019-05-03T17:07:40.365Z,12.50
2019-05-03T17:10:15.924Z,12.60
2019-05-03T17:12:48.075Z,12.70
2019-05-03T17:15:19.730Z,12.70
2019-05-03T17:17:51.289Z,12.80
2019-05-03T17:20:25.432Z,12.80
2019-05-03T17:22:58.682Z,12.90
2019-05-03T17:25:30.234Z,12.90
2019-05-03T17:28:02.459Z,12.80
2019-05-03T17:30:37.230Z,12.90
2019-05-03T17:33:07.599Z,12.90
2019-05-03T17:35:39.037Z,12.90
2019-05-03T17:38:10.576Z,12.90
2019-05-03T17:40:51.009Z,12.90
2019-05-03T17:43:27.479Z,12.90
2019-05-03T17:45:59.501Z,12.80
2019-05-03T17:48:31.168Z,12.80
2019-05-03T17:51:04.437Z,12.80
2019-05-03T17:53:55.304Z,12.80
2019-05-03T17:56:44.734Z,12.80
2019-05-03T17:59:35.308Z,12.70
2019-05-03T18:02:32.384Z,12.60
2019-05-03T18:05:25.006Z,12.50
2019-05-03T18:08:21.432Z,12.40
2019-05-03T18:11:14.840Z,12.30
2019-05-03T18:13:46.297Z,12.30
2019-05-03T18:16:19.411Z,12.20
2019-05-03T18:18:50.793Z,12.10
2019-05-03T18:21:24.342Z,12.10
2019-05-03T18:23:55.465Z,12.10
2019-05-03T18:26:26.964Z,12.00
2019-05-03T18:28:58.234Z,12.00
2019-05-03T18:31:29.774Z,12.00
2019-05-03T18:34:01.466Z,12.00
2019-05-03T18:36:34.663Z,12.00
2019-05-03T18:39:08.330Z,11.90
2019-05-03T18:41:40.154Z,11.90
2019-05-03T18:44:39.752Z,11.90
2019-05-03T18:47:15.131Z,11.90
2019-05-03T18:49:47.276Z,11.90
2019-05-03T18:52:18.887Z,11.90
2019-05-03T18:54:50.740Z,11.80
2019-05-03T18:57:22.756Z,11.80
2019-05-03T18:59:55.553Z,11.70
2019-05-03T19:02:27.247Z,11.70
2019-05-03T19:04:58.660Z,11.70
2019-05-03T19:07:42.763Z,11.70
2019-05-03T19:10:24.808Z,11.60
2019-05-03T19:13:18.784Z,11.60
2019-05-03T19:15:50.324Z,11.50
2019-05-03T19:18:29.574Z,11.50
2019-05-03T19:21:01.425Z,11.40
2019-05-03T19:23:35.343Z,11.30
2019-05-03T19:26:06.501Z,11.30
2019-05-03T19:28:37.991Z,11.20
2019-05-03T19:31:09.944Z,11.20
2019-05-03T19:33:41.486Z,11.10
2019-05-03T19:36:13.155Z,11.10
2019-05-03T19:38:44.964Z,11.10
2019-05-03T19:41:17.144Z,11.00
2019-05-03T19:43:49.864Z,11.00
2019-05-03T19:46:21.706Z,10.90
2019-05-03T19:48:54.712Z,10.90
2019-05-03T19:51:27.808Z,10.80
2019-05-03T19:53:59.413Z,10.80
2019-05-03T19:56:31.137Z,10.70
2019-05-03T19:59:06.995Z,10.70
2019-05-03T20:01:55.248Z,10.70
2019-05-03T20:04:35.222Z,10.60
2019-05-03T20:07:18.617Z,10.60
2019-05-03T20:09:50.103Z,10.50
2019-05-03T20:12:21.548Z,10.50
2019-05-03T20:14:54.630Z,10.50
2019-05-03T20:17:26.217Z,10.40
2019-05-03T20:19:59.636Z,10.40
2019-05-03T20:22:32.604Z,10.30
2019-05-03T20:25:05.666Z,10.30
2019-05-03T20:27:36.945Z,10.20
2019-05-03T20:30:08.802Z,10.20
2019-05-03T20:32:40.521Z,10.10
2019-05-03T20:35:18.841Z,10.10
2019-05-03T20:37:47.322Z,10.00
2019-05-03T20:40:20.428Z,9.90
2019-05-03T20:43:14.177Z,9.90
2019-05-03T20:46:10.302Z,9.80
2019-05-03T20:48:44.818Z,9.70
2019-05-03T20:51:18.534Z,9.70
2019-05-03T20:53:50.100Z,9.60
2019-05-03T20:56:24.516Z,9.60
2019-05-03T20:58:55.903Z,9.50
2019-05-03T21:01:27.938Z,9.50
2019-05-03T21:03:59.781Z,9.40
2019-05-03T21:06:35.513Z,9.40
2019-05-03T21:09:06.606Z,9.30
2019-05-03T21:11:39.837Z,9.20
2019-05-03T21:14:11.423Z,9.20
2019-05-03T21:17:11.252Z,9.20
2019-05-03T21:19:50.990Z,9.10
2019-05-03T21:22:30.583Z,9.10
2019-05-03T21:25:11.092Z,9.00
2019-05-03T21:27:44.922Z,9.00
2019-05-03T21:30:16.677Z,9.00
2019-05-03T21:32:48.159Z,8.90
2019-05-03T21:35:21.111Z,8.90
2019-05-03T21:37:54.438Z,8.90
2019-05-03T21:40:26.660Z,8.90
2019-05-03T21:42:58.098Z,8.80
2019-05-03T21:45:37.864Z,8.80
2019-05-03T21:48:14.582Z,8.80
2019-05-03T21:50:46.641Z,8.80
2019-05-03T21:53:18.027Z,8.80
2019-05-03T21:55:51.419Z,8.80
2019-05-03T21:58:25.042Z,8.90
2019-05-03T22:01:05.236Z,8.90
2019-05-03T22:03:38.328Z,8.90
2019-05-03T22:06:09.964Z,8.90
2019-05-03T22:08:41.771Z,8.90
2019-05-03T22:11:14.837Z,8.90
2019-05-03T22:13:48.330Z,8.90
2019-05-03T23:13:25.015Z,9.00
2019-05-03T23:15:56.590Z,9.00
2019-05-03T23:18:28.097Z,9.00
2019-05-03T23:21:24.518Z,9.00
2019-05-03T23:23:55.985Z,8.90
2019-05-03T23:26:27.641Z,8.90
2019-05-03T23:29:00.460Z,8.90
2019-05-03T23:31:34.273Z,8.90
2019-05-03T23:34:05.414Z,8.90
2019-05-03T23:36:36.806Z,8.80
2019-05-03T23:39:09.281Z,8.80
2019-05-03T23:41:40.860Z,8.80
2019-05-03T23:44:12.575Z,8.80
2019-05-03T23:46:57.076Z,8.80
2019-05-03T23:49:29.961Z,8.80
2019-05-03T23:52:06.358Z,8.80
2019-05-03T23:54:37.750Z,8.80
2019-05-03T23:57:09.028Z,8.80
2019-05-03T23:59:40.676Z,8.70
